< < Back
Terminal Aerodrome Forecast


Current Version              Previous Versions:   1  2  3  4  5  6  7  8  9  

Terminal Aerodrome Forecast

305
FTUS42 KGSP 220300 AAA
TAFGSP
TAF AMD
KGSP 220315Z 2203/2224 36010G20KT P6SM SKC
     FM220600 36007KT P6SM SKC=

Latest METAR

025
SAUS70 KWBC 222200 RRF
MTRGSP
METAR KGSP 222153Z 35005KT 10SM CLR 16/04 A3006 RMK AO2 SLP176
T01610044


USA.gov is the U.S. government's official web portal to all federal, state and local government web resources and services.